sensor_id;sensor_type;location;lat;lon;timestamp;P1;durP1;ratioP1;P2;durP2;ratioP2
68484;SDS011;55472;50.060;21.960;2023-04-29T00:01:26;25.52;;;10.13;;
68484;SDS011;55472;50.060;21.960;2023-04-29T00:03:52;22.33;;;10.63;;
68484;SDS011;55472;50.060;21.960;2023-04-29T00:06:19;20.17;;;9.87;;
68484;SDS011;55472;50.060;21.960;2023-04-29T00:08:45;25.52;;;10.57;;
68484;SDS011;55472;50.060;21.960;2023-04-29T00:11:13;24.80;;;10.45;;
68484;SDS011;55472;50.060;21.960;2023-04-29T00:13:39;27.75;;;10.80;;
68484;SDS011;55472;50.060;21.960;2023-04-29T00:16:05;23.65;;;10.63;;
68484;SDS011;55472;50.060;21.960;2023-04-29T00:18:33;25.10;;;9.93;;
68484;SDS011;55472;50.060;21.960;2023-04-29T00:20:59;24.00;;;9.77;;
68484;SDS011;55472;50.060;21.960;2023-04-29T00:23:25;22.45;;;9.90;;
68484;SDS011;55472;50.060;21.960;2023-04-29T00:25:51;20.60;;;9.07;;
68484;SDS011;55472;50.060;21.960;2023-04-29T00:28:18;24.63;;;10.07;;
68484;SDS011;55472;50.060;21.960;2023-04-29T00:30:45;22.13;;;9.27;;
68484;SDS011;55472;50.060;21.960;2023-04-29T00:33:11;20.13;;;9.70;;
68484;SDS011;55472;50.060;21.960;2023-04-29T00:35:37;23.98;;;10.10;;
68484;SDS011;55472;50.060;21.960;2023-04-29T00:38:03;21.48;;;9.77;;
68484;SDS011;55472;50.060;21.960;2023-04-29T00:40:29;20.53;;;9.67;;
68484;SDS011;55472;50.060;21.960;2023-04-29T00:42:55;20.33;;;9.38;;
68484;SDS011;55472;50.060;21.960;2023-04-29T00:45:22;23.20;;;10.18;;
68484;SDS011;55472;50.060;21.960;2023-04-29T00:47:48;22.73;;;9.38;;
68484;SDS011;55472;50.060;21.960;2023-04-29T00:50:14;21.30;;;9.55;;
68484;SDS011;55472;50.060;21.960;2023-04-29T00:52:40;23.47;;;9.87;;
68484;SDS011;55472;50.060;21.960;2023-04-29T00:55:07;19.60;;;9.05;;
68484;SDS011;55472;50.060;21.960;2023-04-29T00:57:37;25.08;;;9.02;;
68484;SDS011;55472;50.060;21.960;2023-04-29T01:00:04;20.00;;;10.15;;
68484;SDS011;55472;50.060;21.960;2023-04-29T01:02:34;21.10;;;9.50;;
68484;SDS011;55472;50.060;21.960;2023-04-29T01:05:00;21.03;;;10.00;;
68484;SDS011;55472;50.060;21.960;2023-04-29T01:15:05;21.10;;;9.43;;
68484;SDS011;55472;50.060;21.960;2023-04-29T01:17:39;20.10;;;8.87;;
68484;SDS011;55472;50.060;21.960;2023-04-29T01:20:13;24.38;;;10.02;;
68484;SDS011;55472;50.060;21.960;2023-04-29T01:22:40;21.13;;;9.45;;
68484;SDS011;55472;50.060;21.960;2023-04-29T01:25:07;20.95;;;9.25;;
68484;SDS011;55472;50.060;21.960;2023-04-29T01:30:26;22.03;;;8.63;;
68484;SDS011;55472;50.060;21.960;2023-04-29T01:34:13;19.85;;;9.00;;
68484;SDS011;55472;50.060;21.960;2023-04-29T01:42:44;19.60;;;8.88;;
68484;SDS011;55472;50.060;21.960;2023-04-29T01:45:29;21.37;;;9.53;;
68484;SDS011;55472;50.060;21.960;2023-04-29T01:47:58;20.73;;;9.35;;
68484;SDS011;55472;50.060;21.960;2023-04-29T01:50:26;23.65;;;9.27;;
68484;SDS011;55472;50.060;21.960;2023-04-29T01:52:52;21.20;;;9.40;;
68484;SDS011;55472;50.060;21.960;2023-04-29T01:55:18;20.60;;;9.10;;
68484;SDS011;55472;50.060;21.960;2023-04-29T01:57:45;20.27;;;9.07;;
68484;SDS011;55472;50.060;21.960;2023-04-29T02:00:11;20.95;;;9.40;;
68484;SDS011;55472;50.060;21.960;2023-04-29T02:02:37;19.17;;;8.88;;
68484;SDS011;55472;50.060;21.960;2023-04-29T02:05:03;20.83;;;9.65;;
68484;SDS011;55472;50.060;21.960;2023-04-29T02:07:30;20.60;;;9.20;;
68484;SDS011;55472;50.060;21.960;2023-04-29T02:09:56;17.23;;;8.70;;
68484;SDS011;55472;50.060;21.960;2023-04-29T02:12:22;19.60;;;9.45;;
68484;SDS011;55472;50.060;21.960;2023-04-29T02:14:51;20.05;;;9.35;;
68484;SDS011;55472;50.060;21.960;2023-04-29T02:17:18;20.73;;;9.10;;
68484;SDS011;55472;50.060;21.960;2023-04-29T02:19:44;23.93;;;9.10;;
68484;SDS011;55472;50.060;21.960;2023-04-29T02:22:10;23.05;;;9.45;;
68484;SDS011;55472;50.060;21.960;2023-04-29T02:24:37;21.20;;;9.02;;
68484;SDS011;55472;50.060;21.960;2023-04-29T02:27:03;19.70;;;9.00;;
68484;SDS011;55472;50.060;21.960;2023-04-29T02:29:31;19.13;;;8.98;;
68484;SDS011;55472;50.060;21.960;2023-04-29T02:31:57;20.37;;;9.00;;
68484;SDS011;55472;50.060;21.960;2023-04-29T02:34:23;17.73;;;8.40;;
68484;SDS011;55472;50.060;21.960;2023-04-29T02:36:50;22.02;;;9.75;;
68484;SDS011;55472;50.060;21.960;2023-04-29T02:39:15;21.30;;;9.13;;
68484;SDS011;55472;50.060;21.960;2023-04-29T02:41:42;17.17;;;8.97;;
68484;SDS011;55472;50.060;21.960;2023-04-29T02:44:08;19.73;;;9.13;;
68484;SDS011;55472;50.060;21.960;2023-04-29T02:46:34;21.70;;;8.57;;
68484;SDS011;55472;50.060;21.960;2023-04-29T02:49:01;18.48;;;8.70;;
68484;SDS011;55472;50.060;21.960;2023-04-29T02:51:28;18.58;;;8.80;;
68484;SDS011;55472;50.060;21.960;2023-04-29T02:53:55;17.50;;;8.60;;
68484;SDS011;55472;50.060;21.960;2023-04-29T02:56:21;18.35;;;8.20;;
68484;SDS011;55472;50.060;21.960;2023-04-29T02:58:47;19.83;;;8.02;;
68484;SDS011;55472;50.060;21.960;2023-04-29T03:01:13;23.33;;;8.77;;
68484;SDS011;55472;50.060;21.960;2023-04-29T03:03:39;16.48;;;8.18;;
68484;SDS011;55472;50.060;21.960;2023-04-29T03:06:06;18.63;;;7.83;;
68484;SDS011;55472;50.060;21.960;2023-04-29T03:08:32;19.48;;;8.80;;
68484;SDS011;55472;50.060;21.960;2023-04-29T03:10:58;18.35;;;8.15;;
68484;SDS011;55472;50.060;21.960;2023-04-29T03:13:24;15.40;;;8.18;;
68484;SDS011;55472;50.060;21.960;2023-04-29T03:15:50;17.23;;;8.20;;
68484;SDS011;55472;50.060;21.960;2023-04-29T03:18:16;18.08;;;8.27;;
68484;SDS011;55472;50.060;21.960;2023-04-29T03:20:43;17.23;;;8.43;;
68484;SDS011;55472;50.060;21.960;2023-04-29T03:23:09;17.20;;;8.13;;
68484;SDS011;55472;50.060;21.960;2023-04-29T03:25:35;17.95;;;8.00;;
68484;SDS011;55472;50.060;21.960;2023-04-29T03:28:01;21.63;;;7.90;;
68484;SDS011;55472;50.060;21.960;2023-04-29T03:30:27;15.98;;;7.65;;
68484;SDS011;55472;50.060;21.960;2023-04-29T03:32:53;16.30;;;8.23;;
68484;SDS011;55472;50.060;21.960;2023-04-29T03:35:19;20.20;;;8.52;;
68484;SDS011;55472;50.060;21.960;2023-04-29T03:37:46;18.45;;;8.35;;
68484;SDS011;55472;50.060;21.960;2023-04-29T03:40:12;20.13;;;7.97;;
68484;SDS011;55472;50.060;21.960;2023-04-29T03:42:38;17.52;;;7.90;;
68484;SDS011;55472;50.060;21.960;2023-04-29T03:45:04;25.27;;;10.80;;
68484;SDS011;55472;50.060;21.960;2023-04-29T03:47:31;24.02;;;10.82;;
68484;SDS011;55472;50.060;21.960;2023-04-29T03:49:57;18.38;;;8.45;;
68484;SDS011;55472;50.060;21.960;2023-04-29T03:52:23;17.63;;;8.00;;
68484;SDS011;55472;50.060;21.960;2023-04-29T03:54:50;18.40;;;8.40;;
68484;SDS011;55472;50.060;21.960;2023-04-29T03:57:16;16.83;;;7.75;;
68484;SDS011;55472;50.060;21.960;2023-04-29T03:59:42;16.02;;;7.50;;
68484;SDS011;55472;50.060;21.960;2023-04-29T04:02:09;16.30;;;7.80;;
68484;SDS011;55472;50.060;21.960;2023-04-29T04:04:35;18.08;;;7.63;;
68484;SDS011;55472;50.060;21.960;2023-04-29T04:07:02;18.40;;;7.85;;
68484;SDS011;55472;50.060;21.960;2023-04-29T04:09:28;18.95;;;7.72;;
68484;SDS011;55472;50.060;21.960;2023-04-29T04:11:54;16.75;;;7.40;;
68484;SDS011;55472;50.060;21.960;2023-04-29T04:14:20;17.83;;;7.57;;
68484;SDS011;55472;50.060;21.960;2023-04-29T04:16:46;15.73;;;7.18;;
68484;SDS011;55472;50.060;21.960;2023-04-29T04:19:15;16.23;;;7.45;;
68484;SDS011;55472;50.060;21.960;2023-04-29T04:21:41;16.95;;;7.95;;
68484;SDS011;55472;50.060;21.960;2023-04-29T04:24:07;17.45;;;7.63;;
68484;SDS011;55472;50.060;21.960;2023-04-29T04:26:33;13.83;;;7.33;;
68484;SDS011;55472;50.060;21.960;2023-04-29T04:29:00;17.52;;;7.93;;
68484;SDS011;55472;50.060;21.960;2023-04-29T04:31:26;16.23;;;7.30;;
68484;SDS011;55472;50.060;21.960;2023-04-29T04:33:53;17.52;;;7.68;;
68484;SDS011;55472;50.060;21.960;2023-04-29T04:36:20;16.73;;;7.45;;
68484;SDS011;55472;50.060;21.960;2023-04-29T04:38:46;16.80;;;7.80;;
68484;SDS011;55472;50.060;21.960;2023-04-29T04:41:12;13.40;;;7.03;;
68484;SDS011;55472;50.060;21.960;2023-04-29T04:43:38;18.60;;;7.90;;
68484;SDS011;55472;50.060;21.960;2023-04-29T04:46:11;18.35;;;8.10;;
68484;SDS011;55472;50.060;21.960;2023-04-29T04:48:40;16.58;;;7.70;;
68484;SDS011;55472;50.060;21.960;2023-04-29T04:51:10;18.47;;;7.60;;
68484;SDS011;55472;50.060;21.960;2023-04-29T04:53:38;17.65;;;7.22;;
68484;SDS011;55472;50.060;21.960;2023-04-29T04:56:05;17.88;;;7.93;;
68484;SDS011;55472;50.060;21.960;2023-04-29T04:58:32;18.33;;;7.95;;
68484;SDS011;55472;50.060;21.960;2023-04-29T05:00:58;15.50;;;7.63;;
68484;SDS011;55472;50.060;21.960;2023-04-29T05:03:25;16.17;;;7.70;;
68484;SDS011;55472;50.060;21.960;2023-04-29T05:05:52;17.60;;;7.80;;
68484;SDS011;55472;50.060;21.960;2023-04-29T05:08:21;19.27;;;8.00;;
68484;SDS011;55472;50.060;21.960;2023-04-29T05:10:47;14.77;;;7.18;;
68484;SDS011;55472;50.060;21.960;2023-04-29T05:13:14;20.25;;;7.25;;
68484;SDS011;55472;50.060;21.960;2023-04-29T05:15:40;16.47;;;7.13;;
68484;SDS011;55472;50.060;21.960;2023-04-29T05:18:07;16.08;;;7.00;;
68484;SDS011;55472;50.060;21.960;2023-04-29T05:20:33;17.13;;;7.47;;
68484;SDS011;55472;50.060;21.960;2023-04-29T05:22:59;18.70;;;7.78;;
68484;SDS011;55472;50.060;21.960;2023-04-29T05:25:26;15.55;;;6.75;;
68484;SDS011;55472;50.060;21.960;2023-04-29T05:27:52;14.00;;;7.37;;
68484;SDS011;55472;50.060;21.960;2023-04-29T05:30:18;17.65;;;6.95;;
68484;SDS011;55472;50.060;21.960;2023-04-29T05:32:44;17.92;;;6.40;;
68484;SDS011;55472;50.060;21.960;2023-04-29T05:35:10;14.38;;;6.60;;
68484;SDS011;55472;50.060;21.960;2023-04-29T05:37:37;14.97;;;7.10;;
68484;SDS011;55472;50.060;21.960;2023-04-29T05:40:03;14.40;;;6.70;;
68484;SDS011;55472;50.060;21.960;2023-04-29T05:42:30;15.73;;;7.25;;
68484;SDS011;55472;50.060;21.960;2023-04-29T05:44:56;12.80;;;6.35;;
68484;SDS011;55472;50.060;21.960;2023-04-29T05:47:22;15.52;;;7.22;;
68484;SDS011;55472;50.060;21.960;2023-04-29T05:49:48;13.13;;;6.50;;
68484;SDS011;55472;50.060;21.960;2023-04-29T05:52:14;14.13;;;6.63;;
68484;SDS011;55472;50.060;21.960;2023-04-29T05:54:40;12.63;;;6.70;;
68484;SDS011;55472;50.060;21.960;2023-04-29T05:57:06;13.88;;;6.68;;
68484;SDS011;55472;50.060;21.960;2023-04-29T05:59:33;12.30;;;6.27;;
68484;SDS011;55472;50.060;21.960;2023-04-29T06:01:59;13.15;;;6.70;;
68484;SDS011;55472;50.060;21.960;2023-04-29T06:04:26;11.88;;;6.35;;
68484;SDS011;55472;50.060;21.960;2023-04-29T06:06:52;14.02;;;6.88;;
68484;SDS011;55472;50.060;21.960;2023-04-29T06:09:21;11.45;;;5.70;;
68484;SDS011;55472;50.060;21.960;2023-04-29T06:11:51;16.07;;;6.60;;
68484;SDS011;55472;50.060;21.960;2023-04-29T06:14:17;11.35;;;5.93;;
68484;SDS011;55472;50.060;21.960;2023-04-29T06:16:43;11.43;;;5.63;;
68484;SDS011;55472;50.060;21.960;2023-04-29T06:19:09;10.50;;;6.07;;
68484;SDS011;55472;50.060;21.960;2023-04-29T06:21:36;13.93;;;6.47;;
68484;SDS011;55472;50.060;21.960;2023-04-29T06:24:02;19.70;;;7.10;;
68484;SDS011;55472;50.060;21.960;2023-04-29T06:26:28;11.45;;;5.75;;
68484;SDS011;55472;50.060;21.960;2023-04-29T06:28:54;13.52;;;6.43;;
68484;SDS011;55472;50.060;21.960;2023-04-29T06:31:20;11.65;;;5.85;;
68484;SDS011;55472;50.060;21.960;2023-04-29T06:33:46;14.55;;;6.63;;
68484;SDS011;55472;50.060;21.960;2023-04-29T06:36:13;12.70;;;6.10;;
68484;SDS011;55472;50.060;21.960;2023-04-29T06:38:39;12.90;;;6.32;;
68484;SDS011;55472;50.060;21.960;2023-04-29T06:41:05;14.75;;;6.72;;
68484;SDS011;55472;50.060;21.960;2023-04-29T06:43:31;14.07;;;6.00;;
68484;SDS011;55472;50.060;21.960;2023-04-29T06:45:57;11.87;;;6.10;;
68484;SDS011;55472;50.060;21.960;2023-04-29T06:48:24;11.77;;;6.18;;
68484;SDS011;55472;50.060;21.960;2023-04-29T06:50:52;16.08;;;6.40;;
68484;SDS011;55472;50.060;21.960;2023-04-29T06:53:21;13.25;;;6.25;;
68484;SDS011;55472;50.060;21.960;2023-04-29T06:55:49;12.57;;;5.75;;
68484;SDS011;55472;50.060;21.960;2023-04-29T06:58:15;9.33;;;5.30;;
68484;SDS011;55472;50.060;21.960;2023-04-29T07:00:43;11.63;;;5.85;;
68484;SDS011;55472;50.060;21.960;2023-04-29T07:03:11;12.18;;;5.90;;
68484;SDS011;55472;50.060;21.960;2023-04-29T07:05:38;12.23;;;5.75;;
68484;SDS011;55472;50.060;21.960;2023-04-29T07:08:06;12.55;;;5.47;;
68484;SDS011;55472;50.060;21.960;2023-04-29T07:10:34;9.93;;;5.00;;
68484;SDS011;55472;50.060;21.960;2023-04-29T07:13:00;11.32;;;5.25;;
68484;SDS011;55472;50.060;21.960;2023-04-29T07:15:27;10.35;;;4.70;;
68484;SDS011;55472;50.060;21.960;2023-04-29T07:17:57;10.02;;;4.63;;
68484;SDS011;55472;50.060;21.960;2023-04-29T07:20:25;9.45;;;4.30;;
68484;SDS011;55472;50.060;21.960;2023-04-29T07:22:54;12.27;;;4.37;;
68484;SDS011;55472;50.060;21.960;2023-04-29T07:25:20;9.32;;;3.88;;
68484;SDS011;55472;50.060;21.960;2023-04-29T07:27:46;9.32;;;3.72;;
68484;SDS011;55472;50.060;21.960;2023-04-29T07:30:12;7.45;;;3.72;;
68484;SDS011;55472;50.060;21.960;2023-04-29T07:32:38;9.48;;;3.90;;
68484;SDS011;55472;50.060;21.960;2023-04-29T07:35:05;7.77;;;3.70;;
68484;SDS011;55472;50.060;21.960;2023-04-29T07:37:31;10.15;;;4.15;;
68484;SDS011;55472;50.060;21.960;2023-04-29T07:39:58;10.52;;;4.20;;
68484;SDS011;55472;50.060;21.960;2023-04-29T07:42:24;8.38;;;3.42;;
68484;SDS011;55472;50.060;21.960;2023-04-29T07:44:50;9.40;;;3.88;;
68484;SDS011;55472;50.060;21.960;2023-04-29T07:47:16;8.27;;;3.50;;
68484;SDS011;55472;50.060;21.960;2023-04-29T07:49:43;7.70;;;3.65;;
68484;SDS011;55472;50.060;21.960;2023-04-29T07:52:09;8.50;;;3.67;;
68484;SDS011;55472;50.060;21.960;2023-04-29T07:54:35;7.18;;;3.22;;
68484;SDS011;55472;50.060;21.960;2023-04-29T07:57:01;6.45;;;3.88;;
68484;SDS011;55472;50.060;21.960;2023-04-29T07:59:29;9.38;;;3.53;;
68484;SDS011;55472;50.060;21.960;2023-04-29T08:01:56;7.28;;;3.40;;
68484;SDS011;55472;50.060;21.960;2023-04-29T08:04:22;8.43;;;3.43;;
68484;SDS011;55472;50.060;21.960;2023-04-29T08:06:48;7.65;;;3.40;;
68484;SDS011;55472;50.060;21.960;2023-04-29T08:09:15;6.65;;;3.33;;
68484;SDS011;55472;50.060;21.960;2023-04-29T08:11:41;8.10;;;3.30;;
68484;SDS011;55472;50.060;21.960;2023-04-29T08:14:09;6.93;;;3.90;;
68484;SDS011;55472;50.060;21.960;2023-04-29T08:16:35;8.20;;;3.47;;
68484;SDS011;55472;50.060;21.960;2023-04-29T08:19:01;6.72;;;3.05;;
68484;SDS011;55472;50.060;21.960;2023-04-29T08:21:27;7.53;;;3.20;;
68484;SDS011;55472;50.060;21.960;2023-04-29T08:23:56;7.38;;;3.60;;
68484;SDS011;55472;50.060;21.960;2023-04-29T08:26:22;6.53;;;3.30;;
68484;SDS011;55472;50.060;21.960;2023-04-29T08:28:49;7.40;;;3.30;;
68484;SDS011;55472;50.060;21.960;2023-04-29T08:31:15;6.03;;;3.00;;
68484;SDS011;55472;50.060;21.960;2023-04-29T08:33:43;6.82;;;3.38;;
68484;SDS011;55472;50.060;21.960;2023-04-29T08:36:10;7.57;;;3.05;;
68484;SDS011;55472;50.060;21.960;2023-04-29T08:38:36;6.28;;;3.50;;
68484;SDS011;55472;50.060;21.960;2023-04-29T08:41:02;7.90;;;2.90;;
68484;SDS011;55472;50.060;21.960;2023-04-29T08:43:29;6.90;;;3.00;;
68484;SDS011;55472;50.060;21.960;2023-04-29T08:45:57;8.73;;;2.92;;
68484;SDS011;55472;50.060;21.960;2023-04-29T08:48:24;6.93;;;3.17;;
68484;SDS011;55472;50.060;21.960;2023-04-29T08:50:51;7.32;;;2.97;;
68484;SDS011;55472;50.060;21.960;2023-04-29T08:53:17;6.55;;;2.83;;
68484;SDS011;55472;50.060;21.960;2023-04-29T08:55:44;8.67;;;3.20;;
68484;SDS011;55472;50.060;21.960;2023-04-29T08:58:14;6.68;;;2.60;;
68484;SDS011;55472;50.060;21.960;2023-04-29T09:00:41;8.40;;;3.30;;
68484;SDS011;55472;50.060;21.960;2023-04-29T09:05:54;6.85;;;2.95;;
68484;SDS011;55472;50.060;21.960;2023-04-29T09:08:24;7.43;;;3.20;;
68484;SDS011;55472;50.060;21.960;2023-04-29T09:10:51;7.88;;;2.95;;
68484;SDS011;55472;50.060;21.960;2023-04-29T09:13:27;6.72;;;3.10;;
68484;SDS011;55472;50.060;21.960;2023-04-29T09:15:55;7.95;;;2.95;;
68484;SDS011;55472;50.060;21.960;2023-04-29T09:21:20;8.57;;;3.37;;
68484;SDS011;55472;50.060;21.960;2023-04-29T09:23:55;8.73;;;2.88;;
68484;SDS011;55472;50.060;21.960;2023-04-29T09:26:24;6.00;;;3.28;;
68484;SDS011;55472;50.060;21.960;2023-04-29T09:29:12;9.38;;;3.00;;
68484;SDS011;55472;50.060;21.960;2023-04-29T09:31:41;5.65;;;2.97;;
68484;SDS011;55472;50.060;21.960;2023-04-29T09:34:08;6.73;;;2.90;;
68484;SDS011;55472;50.060;21.960;2023-04-29T09:36:36;6.35;;;3.10;;
68484;SDS011;55472;50.060;21.960;2023-04-29T09:39:10;5.05;;;2.85;;
68484;SDS011;55472;50.060;21.960;2023-04-29T09:44:19;8.02;;;3.28;;
68484;SDS011;55472;50.060;21.960;2023-04-29T09:46:57;7.60;;;3.10;;
68484;SDS011;55472;50.060;21.960;2023-04-29T09:49:33;6.93;;;2.92;;
68484;SDS011;55472;50.060;21.960;2023-04-29T09:52:05;8.13;;;3.47;;
68484;SDS011;55472;50.060;21.960;2023-04-29T09:54:34;7.25;;;2.90;;
68484;SDS011;55472;50.060;21.960;2023-04-29T09:57:03;9.40;;;3.13;;
68484;SDS011;55472;50.060;21.960;2023-04-29T09:59:34;8.80;;;3.10;;
68484;SDS011;55472;50.060;21.960;2023-04-29T10:02:06;5.10;;;3.00;;
68484;SDS011;55472;50.060;21.960;2023-04-29T10:04:54;7.43;;;3.10;;
68484;SDS011;55472;50.060;21.960;2023-04-29T10:07:22;8.13;;;3.47;;
68484;SDS011;55472;50.060;21.960;2023-04-29T10:09:51;6.18;;;2.90;;
68484;SDS011;55472;50.060;21.960;2023-04-29T10:12:19;5.68;;;2.95;;
68484;SDS011;55472;50.060;21.960;2023-04-29T10:20:27;6.97;;;2.83;;
68484;SDS011;55472;50.060;21.960;2023-04-29T10:22:54;5.47;;;2.83;;
68484;SDS011;55472;50.060;21.960;2023-04-29T10:25:22;5.00;;;2.80;;
68484;SDS011;55472;50.060;21.960;2023-04-29T10:27:50;8.40;;;3.00;;
68484;SDS011;55472;50.060;21.960;2023-04-29T10:30:19;6.15;;;3.40;;
68484;SDS011;55472;50.060;21.960;2023-04-29T10:32:47;5.95;;;3.22;;
68484;SDS011;55472;50.060;21.960;2023-04-29T10:35:16;8.17;;;3.27;;
68484;SDS011;55472;50.060;21.960;2023-04-29T10:37:44;7.15;;;3.63;;
68484;SDS011;55472;50.060;21.960;2023-04-29T10:42:46;7.88;;;3.45;;
68484;SDS011;55472;50.060;21.960;2023-04-29T10:45:29;6.85;;;2.97;;
68484;SDS011;55472;50.060;21.960;2023-04-29T10:50:31;6.43;;;3.10;;
68484;SDS011;55472;50.060;21.960;2023-04-29T10:53:02;7.07;;;3.03;;
68484;SDS011;55472;50.060;21.960;2023-04-29T10:55:30;8.43;;;3.20;;
68484;SDS011;55472;50.060;21.960;2023-04-29T10:58:01;12.43;;;3.78;;
68484;SDS011;55472;50.060;21.960;2023-04-29T11:00:32;9.80;;;3.20;;
68484;SDS011;55472;50.060;21.960;2023-04-29T11:03:00;6.70;;;3.05;;
68484;SDS011;55472;50.060;21.960;2023-04-29T11:05:31;5.78;;;3.08;;
68484;SDS011;55472;50.060;21.960;2023-04-29T11:08:11;7.65;;;2.85;;
68484;SDS011;55472;50.060;21.960;2023-04-29T11:10:51;6.47;;;2.83;;
68484;SDS011;55472;50.060;21.960;2023-04-29T11:15:52;9.43;;;3.00;;
68484;SDS011;55472;50.060;21.960;2023-04-29T11:18:29;8.45;;;2.50;;
68484;SDS011;55472;50.060;21.960;2023-04-29T11:23:34;6.07;;;2.97;;
68484;SDS011;55472;50.060;21.960;2023-04-29T11:26:01;7.93;;;3.20;;
68484;SDS011;55472;50.060;21.960;2023-04-29T11:28:31;6.40;;;2.87;;
68484;SDS011;55472;50.060;21.960;2023-04-29T11:30:58;7.85;;;2.97;;
68484;SDS011;55472;50.060;21.960;2023-04-29T11:33:25;8.27;;;3.00;;
68484;SDS011;55472;50.060;21.960;2023-04-29T11:35:55;7.82;;;2.90;;
68484;SDS011;55472;50.060;21.960;2023-04-29T11:38:25;7.82;;;3.25;;
68484;SDS011;55472;50.060;21.960;2023-04-29T11:40:55;6.88;;;2.95;;
68484;SDS011;55472;50.060;21.960;2023-04-29T11:43:23;6.55;;;3.20;;
68484;SDS011;55472;50.060;21.960;2023-04-29T11:45:50;8.68;;;2.95;;
68484;SDS011;55472;50.060;21.960;2023-04-29T11:50:44;6.70;;;2.87;;
68484;SDS011;55472;50.060;21.960;2023-04-29T11:53:13;6.18;;;2.72;;
68484;SDS011;55472;50.060;21.960;2023-04-29T11:55:43;7.20;;;2.50;;
68484;SDS011;55472;50.060;21.960;2023-04-29T11:58:10;10.50;;;3.72;;
68484;SDS011;55472;50.060;21.960;2023-04-29T12:00:36;6.13;;;2.88;;
68484;SDS011;55472;50.060;21.960;2023-04-29T12:03:06;7.43;;;2.90;;
68484;SDS011;55472;50.060;21.960;2023-04-29T12:06:00;8.23;;;2.70;;
68484;SDS011;55472;50.060;21.960;2023-04-29T12:08:28;5.95;;;2.63;;
68484;SDS011;55472;50.060;21.960;2023-04-29T12:10:55;6.97;;;2.47;;
68484;SDS011;55472;50.060;21.960;2023-04-29T12:13:24;5.38;;;3.03;;
68484;SDS011;55472;50.060;21.960;2023-04-29T12:15:54;6.57;;;2.65;;
68484;SDS011;55472;50.060;21.960;2023-04-29T12:18:22;7.22;;;2.75;;
68484;SDS011;55472;50.060;21.960;2023-04-29T12:20:49;7.45;;;2.80;;
68484;SDS011;55472;50.060;21.960;2023-04-29T12:23:17;7.73;;;2.57;;
68484;SDS011;55472;50.060;21.960;2023-04-29T12:25:51;11.50;;;2.80;;
68484;SDS011;55472;50.060;21.960;2023-04-29T12:28:23;5.10;;;2.30;;
68484;SDS011;55472;50.060;21.960;2023-04-29T12:30:51;8.05;;;2.92;;
68484;SDS011;55472;50.060;21.960;2023-04-29T12:33:22;6.45;;;2.40;;
68484;SDS011;55472;50.060;21.960;2023-04-29T12:35:51;6.55;;;2.75;;
68484;SDS011;55472;50.060;21.960;2023-04-29T12:38:27;7.97;;;3.53;;
68484;SDS011;55472;50.060;21.960;2023-04-29T12:40:59;5.80;;;3.00;;
68484;SDS011;55472;50.060;21.960;2023-04-29T12:43:32;6.40;;;2.90;;
68484;SDS011;55472;50.060;21.960;2023-04-29T12:46:02;6.68;;;3.00;;
68484;SDS011;55472;50.060;21.960;2023-04-29T12:48:30;10.85;;;4.85;;
68484;SDS011;55472;50.060;21.960;2023-04-29T12:50:58;8.38;;;3.50;;
68484;SDS011;55472;50.060;21.960;2023-04-29T12:53:26;6.77;;;2.93;;
68484;SDS011;55472;50.060;21.960;2023-04-29T12:55:57;9.57;;;3.10;;
68484;SDS011;55472;50.060;21.960;2023-04-29T12:58:23;6.97;;;2.83;;
68484;SDS011;55472;50.060;21.960;2023-04-29T13:00:49;6.30;;;2.88;;
68484;SDS011;55472;50.060;21.960;2023-04-29T13:03:15;4.97;;;2.72;;
68484;SDS011;55472;50.060;21.960;2023-04-29T13:05:41;7.10;;;3.05;;
68484;SDS011;55472;50.060;21.960;2023-04-29T13:08:08;7.40;;;2.77;;
68484;SDS011;55472;50.060;21.960;2023-04-29T13:10:34;7.05;;;2.63;;
68484;SDS011;55472;50.060;21.960;2023-04-29T13:13:00;5.50;;;2.47;;
68484;SDS011;55472;50.060;21.960;2023-04-29T13:15:26;6.38;;;3.15;;
68484;SDS011;55472;50.060;21.960;2023-04-29T13:17:53;7.82;;;2.97;;
68484;SDS011;55472;50.060;21.960;2023-04-29T13:20:19;10.30;;;2.83;;
68484;SDS011;55472;50.060;21.960;2023-04-29T13:22:46;6.68;;;2.67;;
68484;SDS011;55472;50.060;21.960;2023-04-29T13:25:12;8.82;;;3.17;;
68484;SDS011;55472;50.060;21.960;2023-04-29T13:27:40;6.03;;;2.60;;
68484;SDS011;55472;50.060;21.960;2023-04-29T13:30:06;6.50;;;3.00;;
68484;SDS011;55472;50.060;21.960;2023-04-29T13:32:33;4.93;;;2.40;;
68484;SDS011;55472;50.060;21.960;2023-04-29T13:34:59;8.57;;;2.50;;
68484;SDS011;55472;50.060;21.960;2023-04-29T13:37:26;7.85;;;2.50;;
68484;SDS011;55472;50.060;21.960;2023-04-29T13:39:52;5.22;;;2.65;;
68484;SDS011;55472;50.060;21.960;2023-04-29T13:42:19;6.03;;;2.70;;
68484;SDS011;55472;50.060;21.960;2023-04-29T13:44:44;4.93;;;2.23;;
68484;SDS011;55472;50.060;21.960;2023-04-29T13:47:11;9.23;;;2.83;;
68484;SDS011;55472;50.060;21.960;2023-04-29T13:49:40;5.35;;;2.55;;
68484;SDS011;55472;50.060;21.960;2023-04-29T13:52:11;10.13;;;4.40;;
68484;SDS011;55472;50.060;21.960;2023-04-29T13:54:38;7.60;;;3.80;;
68484;SDS011;55472;50.060;21.960;2023-04-29T13:57:04;5.80;;;2.57;;
68484;SDS011;55472;50.060;21.960;2023-04-29T13:59:31;5.85;;;2.72;;
68484;SDS011;55472;50.060;21.960;2023-04-29T14:01:58;5.05;;;2.55;;
68484;SDS011;55472;50.060;21.960;2023-04-29T14:04:25;6.13;;;2.58;;
68484;SDS011;55472;50.060;21.960;2023-04-29T14:06:53;17.50;;;7.70;;
68484;SDS011;55472;50.060;21.960;2023-04-29T14:09:20;6.33;;;3.43;;
68484;SDS011;55472;50.060;21.960;2023-04-29T14:11:47;6.30;;;3.78;;
68484;SDS011;55472;50.060;21.960;2023-04-29T14:14:14;6.25;;;2.80;;
68484;SDS011;55472;50.060;21.960;2023-04-29T14:16:42;7.45;;;2.85;;
68484;SDS011;55472;50.060;21.960;2023-04-29T14:19:08;8.10;;;5.07;;
68484;SDS011;55472;50.060;21.960;2023-04-29T14:21:34;7.80;;;3.60;;
68484;SDS011;55472;50.060;21.960;2023-04-29T14:24:01;6.03;;;2.33;;
68484;SDS011;55472;50.060;21.960;2023-04-29T14:26:28;9.13;;;3.95;;
68484;SDS011;55472;50.060;21.960;2023-04-29T14:28:55;10.73;;;2.37;;
68484;SDS011;55472;50.060;21.960;2023-04-29T14:31:24;6.07;;;2.20;;
68484;SDS011;55472;50.060;21.960;2023-04-29T14:33:55;6.80;;;2.40;;
68484;SDS011;55472;50.060;21.960;2023-04-29T14:36:22;6.28;;;2.97;;
68484;SDS011;55472;50.060;21.960;2023-04-29T14:38:49;6.43;;;2.60;;
68484;SDS011;55472;50.060;21.960;2023-04-29T14:41:16;7.33;;;3.00;;
68484;SDS011;55472;50.060;21.960;2023-04-29T14:43:42;5.75;;;2.78;;
68484;SDS011;55472;50.060;21.960;2023-04-29T14:46:08;6.50;;;2.88;;
68484;SDS011;55472;50.060;21.960;2023-04-29T14:48:35;5.07;;;2.80;;
68484;SDS011;55472;50.060;21.960;2023-04-29T14:51:01;36.40;;;21.40;;
68484;SDS011;55472;50.060;21.960;2023-04-29T14:53:27;6.47;;;3.93;;
68484;SDS011;55472;50.060;21.960;2023-04-29T14:55:54;14.32;;;6.03;;
68484;SDS011;55472;50.060;21.960;2023-04-29T14:58:20;11.13;;;5.80;;
68484;SDS011;55472;50.060;21.960;2023-04-29T15:00:47;13.45;;;7.60;;
68484;SDS011;55472;50.060;21.960;2023-04-29T15:03:15;19.52;;;11.60;;
68484;SDS011;55472;50.060;21.960;2023-04-29T15:05:42;10.70;;;3.83;;
68484;SDS011;55472;50.060;21.960;2023-04-29T15:08:08;6.10;;;3.03;;
68484;SDS011;55472;50.060;21.960;2023-04-29T15:10:35;6.38;;;3.20;;
68484;SDS011;55472;50.060;21.960;2023-04-29T15:13:01;7.35;;;4.25;;